SBGR/GRU METAR and TAF weather

Enter ICAO airport designator
Station Type Date Time Source
SBGR METAR 2019/08/22 20:00 UTC NOAA

SBGR 222000Z 15007KT 9999 BKN015 BKN025 16/13 Q1024


Station Type Date Time Source
SBGR Decoded METAR 2019/08/22 20:00 UTC NOAA

Station name not available
Aug 22, 2019 - 04:00 PM EDT / 2019.08.22 2000 UTC
Wind: from the SSE (150 degrees) at 8 MPH (7 KT):0
Visibility: greater than 7 mile(s):0
Sky conditions: mostly cloudy
Temperature: 60 F (16 C)
Dew Point: 55 F (13 C)
Relative Humidity: 82%
Pressure (altimeter): 30.24 in. Hg (1024 hPa)
ob: SBGR 222000Z 15007KT 9999 BKN015 BKN025 16/13 Q1024
cycle: 20

Station Type Date Time Source
SBGR TAF 2019/08/22 18:27 UTC NOAA

TAF TAF SBGR 221600Z 2218/2324 15007KT 9999 BKN018TN13/2308Z TX19/2318Z
BECMG 2220/2222 BKN010
BECMG 2300/2302 12005KT BKN009 PROB40 2309/2312 4000 DZ BR OVC006
BECMG 2313/2315 BKN025
TEMPO 2316/2319 SCT020
BECMG 2320/2322 15008KT BKN012
RMK PGD

Example: see airport list